sensor_id;sensor_type;location;lat;lon;timestamp;P1;durP1;ratioP1;P2;durP2;ratioP2
19653;SDS011;9975;48.046;7.804;2022-11-28T01:57:21;7.53;;;6.05;;
19653;SDS011;9975;48.046;7.804;2022-11-28T02:00:01;10.95;;;7.55;;
19653;SDS011;9975;48.046;7.804;2022-11-28T02:05:24;12.60;;;7.80;;
19653;SDS011;9975;48.046;7.804;2022-11-28T02:07:50;10.47;;;7.20;;
19653;SDS011;9975;48.046;7.804;2022-11-28T02:10:20;11.03;;;6.93;;
19653;SDS011;9975;48.046;7.804;2022-11-28T02:15:56;15.47;;;7.80;;
19653;SDS011;9975;48.046;7.804;2022-11-28T02:18:35;10.30;;;7.28;;
19653;SDS011;9975;48.046;7.804;2022-11-28T02:32:15;8.47;;;6.50;;
19653;SDS011;9975;48.046;7.804;2022-11-28T02:35:00;7.83;;;5.47;;
19653;SDS011;9975;48.046;7.804;2022-11-28T02:37:36;9.70;;;6.03;;
19653;SDS011;9975;48.046;7.804;2022-11-28T02:42:45;10.90;;;7.00;;
19653;SDS011;9975;48.046;7.804;2022-11-28T02:48:14;10.40;;;6.40;;
19653;SDS011;9975;48.046;7.804;2022-11-28T02:53:55;12.80;;;7.70;;
19653;SDS011;9975;48.046;7.804;2022-11-28T02:56:23;12.80;;;8.17;;
19653;SDS011;9975;48.046;7.804;2022-11-28T02:58:49;11.40;;;7.93;;
19653;SDS011;9975;48.046;7.804;2022-11-28T03:01:20;13.40;;;7.47;;
19653;SDS011;9975;48.046;7.804;2022-11-28T03:06:40;13.65;;;7.43;;
19653;SDS011;9975;48.046;7.804;2022-11-28T03:09:30;11.40;;;7.30;;
19653;SDS011;9975;48.046;7.804;2022-11-28T03:15:03;14.90;;;7.80;;
19653;SDS011;9975;48.046;7.804;2022-11-28T03:17:33;15.87;;;8.37;;
19653;SDS011;9975;48.046;7.804;2022-11-28T03:25:55;13.38;;;7.47;;
19653;SDS011;9975;48.046;7.804;2022-11-28T03:28:33;9.20;;;6.90;;
19653;SDS011;9975;48.046;7.804;2022-11-28T03:31:21;10.33;;;6.83;;
19653;SDS011;9975;48.046;7.804;2022-11-28T03:33:52;12.13;;;7.50;;
19653;SDS011;9975;48.046;7.804;2022-11-28T03:36:25;14.20;;;7.30;;
19653;SDS011;9975;48.046;7.804;2022-11-28T03:38:57;9.93;;;6.10;;
19653;SDS011;9975;48.046;7.804;2022-11-28T03:41:28;8.90;;;5.90;;
19653;SDS011;9975;48.046;7.804;2022-11-28T03:44:38;7.97;;;5.17;;
19653;SDS011;9975;48.046;7.804;2022-11-28T03:47:07;9.65;;;5.65;;
19653;SDS011;9975;48.046;7.804;2022-11-28T03:49:36;10.50;;;5.80;;
19653;SDS011;9975;48.046;7.804;2022-11-28T03:52:06;11.43;;;6.57;;
19653;SDS011;9975;48.046;7.804;2022-11-28T03:54:39;7.67;;;5.33;;
19653;SDS011;9975;48.046;7.804;2022-11-28T03:57:32;8.80;;;5.22;;
19653;SDS011;9975;48.046;7.804;2022-11-28T04:00:06;9.23;;;5.37;;
19653;SDS011;9975;48.046;7.804;2022-11-28T04:07:46;9.53;;;5.80;;
19653;SDS011;9975;48.046;7.804;2022-11-28T04:10:37;12.40;;;6.17;;
19653;SDS011;9975;48.046;7.804;2022-11-28T04:13:20;10.03;;;5.90;;
19653;SDS011;9975;48.046;7.804;2022-11-28T04:18:23;7.20;;;5.57;;
19653;SDS011;9975;48.046;7.804;2022-11-28T04:21:08;5.40;;;4.23;;
19653;SDS011;9975;48.046;7.804;2022-11-28T04:23:38;9.00;;;5.53;;
19653;SDS011;9975;48.046;7.804;2022-11-28T04:26:09;6.77;;;5.40;;
19653;SDS011;9975;48.046;7.804;2022-11-28T04:28:41;8.23;;;5.67;;
19653;SDS011;9975;48.046;7.804;2022-11-28T04:31:10;9.07;;;5.93;;
19653;SDS011;9975;48.046;7.804;2022-11-28T04:33:37;7.87;;;5.63;;
19653;SDS011;9975;48.046;7.804;2022-11-28T04:36:07;6.63;;;5.43;;
19653;SDS011;9975;48.046;7.804;2022-11-28T04:38:35;8.45;;;5.75;;
19653;SDS011;9975;48.046;7.804;2022-11-28T04:41:24;11.40;;;6.80;;
19653;SDS011;9975;48.046;7.804;2022-11-28T04:43:57;10.83;;;6.13;;
19653;SDS011;9975;48.046;7.804;2022-11-28T04:46:31;7.87;;;5.27;;
19653;SDS011;9975;48.046;7.804;2022-11-28T04:49:03;9.83;;;6.70;;
19653;SDS011;9975;48.046;7.804;2022-11-28T04:54:05;7.77;;;5.63;;
19653;SDS011;9975;48.046;7.804;2022-11-28T04:56:43;9.43;;;6.73;;
19653;SDS011;9975;48.046;7.804;2022-11-28T04:59:13;11.43;;;7.17;;
19653;SDS011;9975;48.046;7.804;2022-11-28T05:01:40;13.33;;;6.70;;
19653;SDS011;9975;48.046;7.804;2022-11-28T05:04:08;10.13;;;5.90;;
19653;SDS011;9975;48.046;7.804;2022-11-28T05:06:34;13.70;;;6.37;;
19653;SDS011;9975;48.046;7.804;2022-11-28T05:09:01;8.50;;;6.60;;
19653;SDS011;9975;48.046;7.804;2022-11-28T05:11:27;9.13;;;6.10;;
19653;SDS011;9975;48.046;7.804;2022-11-28T05:13:53;7.53;;;5.10;;
19653;SDS011;9975;48.046;7.804;2022-11-28T05:16:20;9.40;;;5.57;;
19653;SDS011;9975;48.046;7.804;2022-11-28T05:18:46;10.20;;;6.20;;
19653;SDS011;9975;48.046;7.804;2022-11-28T05:21:12;11.73;;;6.60;;
19653;SDS011;9975;48.046;7.804;2022-11-28T05:23:39;9.43;;;6.90;;
19653;SDS011;9975;48.046;7.804;2022-11-28T05:26:06;24.47;;;17.60;;
19653;SDS011;9975;48.046;7.804;2022-11-28T05:28:34;12.23;;;8.37;;
19653;SDS011;9975;48.046;7.804;2022-11-28T05:31:00;9.43;;;7.93;;
19653;SDS011;9975;48.046;7.804;2022-11-28T05:33:29;7.27;;;6.40;;
19653;SDS011;9975;48.046;7.804;2022-11-28T05:35:56;9.43;;;6.20;;
19653;SDS011;9975;48.046;7.804;2022-11-28T05:38:27;8.20;;;6.88;;
19653;SDS011;9975;48.046;7.804;2022-11-28T05:40:53;13.87;;;7.60;;
19653;SDS011;9975;48.046;7.804;2022-11-28T05:43:18;7.37;;;6.53;;
19653;SDS011;9975;48.046;7.804;2022-11-28T05:45:44;7.63;;;5.97;;
19653;SDS011;9975;48.046;7.804;2022-11-28T05:48:10;9.30;;;5.53;;
19653;SDS011;9975;48.046;7.804;2022-11-28T05:50:39;8.60;;;5.80;;
19653;SDS011;9975;48.046;7.804;2022-11-28T05:53:06;9.73;;;6.70;;
19653;SDS011;9975;48.046;7.804;2022-11-28T05:55:32;7.80;;;4.72;;
19653;SDS011;9975;48.046;7.804;2022-11-28T05:57:58;7.83;;;5.23;;
19653;SDS011;9975;48.046;7.804;2022-11-28T06:00:23;9.00;;;6.20;;
19653;SDS011;9975;48.046;7.804;2022-11-28T06:02:49;7.20;;;5.33;;
19653;SDS011;9975;48.046;7.804;2022-11-28T06:05:15;7.77;;;5.17;;
19653;SDS011;9975;48.046;7.804;2022-11-28T06:07:41;9.87;;;5.20;;
19653;SDS011;9975;48.046;7.804;2022-11-28T06:10:06;9.13;;;5.73;;
19653;SDS011;9975;48.046;7.804;2022-11-28T06:12:32;7.40;;;5.27;;
19653;SDS011;9975;48.046;7.804;2022-11-28T06:14:58;9.33;;;5.20;;
19653;SDS011;9975;48.046;7.804;2022-11-28T06:17:24;10.37;;;6.90;;
19653;SDS011;9975;48.046;7.804;2022-11-28T06:19:49;9.10;;;6.47;;
19653;SDS011;9975;48.046;7.804;2022-11-28T06:22:15;16.33;;;7.40;;
19653;SDS011;9975;48.046;7.804;2022-11-28T06:24:41;13.40;;;7.80;;
19653;SDS011;9975;48.046;7.804;2022-11-28T06:27:07;16.40;;;9.07;;
19653;SDS011;9975;48.046;7.804;2022-11-28T06:29:32;19.10;;;9.07;;
19653;SDS011;9975;48.046;7.804;2022-11-28T06:31:58;9.00;;;6.33;;
19653;SDS011;9975;48.046;7.804;2022-11-28T06:34:24;12.23;;;7.70;;
19653;SDS011;9975;48.046;7.804;2022-11-28T06:36:49;11.10;;;7.37;;
19653;SDS011;9975;48.046;7.804;2022-11-28T06:39:15;10.87;;;7.93;;
19653;SDS011;9975;48.046;7.804;2022-11-28T06:41:41;11.10;;;7.70;;
19653;SDS011;9975;48.046;7.804;2022-11-28T06:44:09;10.67;;;8.27;;
19653;SDS011;9975;48.046;7.804;2022-11-28T06:46:38;16.48;;;8.57;;
19653;SDS011;9975;48.046;7.804;2022-11-28T06:49:04;8.33;;;5.60;;
19653;SDS011;9975;48.046;7.804;2022-11-28T06:51:30;10.23;;;6.97;;
19653;SDS011;9975;48.046;7.804;2022-11-28T06:53:55;9.50;;;7.13;;
19653;SDS011;9975;48.046;7.804;2022-11-28T06:56:21;12.53;;;7.47;;
19653;SDS011;9975;48.046;7.804;2022-11-28T06:58:51;11.57;;;7.90;;
19653;SDS011;9975;48.046;7.804;2022-11-28T07:01:28;9.10;;;6.10;;
19653;SDS011;9975;48.046;7.804;2022-11-28T07:03:55;17.83;;;7.20;;
19653;SDS011;9975;48.046;7.804;2022-11-28T07:06:22;12.60;;;7.00;;
19653;SDS011;9975;48.046;7.804;2022-11-28T07:08:49;9.17;;;6.23;;
19653;SDS011;9975;48.046;7.804;2022-11-28T07:11:20;10.10;;;7.47;;
19653;SDS011;9975;48.046;7.804;2022-11-28T07:13:50;10.17;;;6.60;;
19653;SDS011;9975;48.046;7.804;2022-11-28T07:16:26;9.53;;;6.70;;
19653;SDS011;9975;48.046;7.804;2022-11-28T07:18:54;7.23;;;6.07;;
19653;SDS011;9975;48.046;7.804;2022-11-28T07:21:20;7.50;;;6.20;;
19653;SDS011;9975;48.046;7.804;2022-11-28T07:23:46;10.73;;;7.10;;
19653;SDS011;9975;48.046;7.804;2022-11-28T07:26:13;9.77;;;6.23;;
19653;SDS011;9975;48.046;7.804;2022-11-28T07:28:41;7.40;;;5.70;;
19653;SDS011;9975;48.046;7.804;2022-11-28T07:31:18;10.53;;;5.67;;
19653;SDS011;9975;48.046;7.804;2022-11-28T07:33:46;12.47;;;5.37;;
19653;SDS011;9975;48.046;7.804;2022-11-28T07:36:14;8.40;;;5.87;;
19653;SDS011;9975;48.046;7.804;2022-11-28T07:38:44;8.20;;;4.77;;
19653;SDS011;9975;48.046;7.804;2022-11-28T07:41:14;9.90;;;5.47;;
19653;SDS011;9975;48.046;7.804;2022-11-28T07:43:41;38.63;;;18.40;;
19653;SDS011;9975;48.046;7.804;2022-11-28T07:46:09;36.27;;;18.80;;
19653;SDS011;9975;48.046;7.804;2022-11-28T07:48:36;23.23;;;13.00;;
19653;SDS011;9975;48.046;7.804;2022-11-28T07:51:21;20.00;;;11.50;;
19653;SDS011;9975;48.046;7.804;2022-11-28T07:53:48;12.40;;;7.73;;
19653;SDS011;9975;48.046;7.804;2022-11-28T07:56:15;9.40;;;6.70;;
19653;SDS011;9975;48.046;7.804;2022-11-28T07:58:45;7.57;;;5.80;;
19653;SDS011;9975;48.046;7.804;2022-11-28T08:01:18;6.87;;;5.23;;
19653;SDS011;9975;48.046;7.804;2022-11-28T08:03:48;11.10;;;5.70;;
19653;SDS011;9975;48.046;7.804;2022-11-28T08:06:15;16.17;;;6.03;;
19653;SDS011;9975;48.046;7.804;2022-11-28T08:08:43;8.30;;;4.23;;
19653;SDS011;9975;48.046;7.804;2022-11-28T08:11:11;11.77;;;4.50;;
19653;SDS011;9975;48.046;7.804;2022-11-28T08:13:38;9.13;;;4.50;;
19653;SDS011;9975;48.046;7.804;2022-11-28T08:16:08;5.37;;;4.17;;
19653;SDS011;9975;48.046;7.804;2022-11-28T08:18:38;10.43;;;3.77;;
19653;SDS011;9975;48.046;7.804;2022-11-28T08:21:05;6.00;;;3.90;;
19653;SDS011;9975;48.046;7.804;2022-11-28T08:23:40;8.17;;;3.60;;
19653;SDS011;9975;48.046;7.804;2022-11-28T08:26:08;8.50;;;4.17;;
19653;SDS011;9975;48.046;7.804;2022-11-28T08:28:35;6.10;;;4.50;;
19653;SDS011;9975;48.046;7.804;2022-11-28T08:31:14;4.70;;;3.80;;
19653;SDS011;9975;48.046;7.804;2022-11-28T08:33:42;6.83;;;4.97;;
19653;SDS011;9975;48.046;7.804;2022-11-28T08:36:09;13.33;;;5.80;;
19653;SDS011;9975;48.046;7.804;2022-11-28T08:38:37;8.90;;;5.70;;
19653;SDS011;9975;48.046;7.804;2022-11-28T08:41:03;8.70;;;5.53;;
19653;SDS011;9975;48.046;7.804;2022-11-28T08:43:30;10.80;;;5.80;;
19653;SDS011;9975;48.046;7.804;2022-11-28T08:45:57;11.67;;;5.77;;
19653;SDS011;9975;48.046;7.804;2022-11-28T08:48:23;12.53;;;6.03;;
19653;SDS011;9975;48.046;7.804;2022-11-28T08:50:49;13.47;;;5.47;;
19653;SDS011;9975;48.046;7.804;2022-11-28T08:53:15;15.73;;;7.30;;
19653;SDS011;9975;48.046;7.804;2022-11-28T08:55:40;16.57;;;7.27;;
19653;SDS011;9975;48.046;7.804;2022-11-28T08:58:08;15.13;;;8.30;;
19653;SDS011;9975;48.046;7.804;2022-11-28T09:00:34;7.27;;;5.53;;
19653;SDS011;9975;48.046;7.804;2022-11-28T09:02:59;6.70;;;5.10;;
19653;SDS011;9975;48.046;7.804;2022-11-28T09:05:26;7.40;;;5.30;;
19653;SDS011;9975;48.046;7.804;2022-11-28T09:07:53;6.97;;;5.47;;
19653;SDS011;9975;48.046;7.804;2022-11-28T09:10:19;8.30;;;5.40;;
19653;SDS011;9975;48.046;7.804;2022-11-28T09:12:45;10.70;;;5.60;;
19653;SDS011;9975;48.046;7.804;2022-11-28T09:15:11;10.77;;;5.63;;
19653;SDS011;9975;48.046;7.804;2022-11-28T09:17:38;11.57;;;7.07;;
19653;SDS011;9975;48.046;7.804;2022-11-28T09:20:04;9.60;;;5.80;;
19653;SDS011;9975;48.046;7.804;2022-11-28T09:22:30;7.57;;;6.00;;
19653;SDS011;9975;48.046;7.804;2022-11-28T09:24:56;8.90;;;4.97;;
19653;SDS011;9975;48.046;7.804;2022-11-28T09:27:21;18.13;;;10.90;;
19653;SDS011;9975;48.046;7.804;2022-11-28T09:29:47;12.20;;;6.33;;
19653;SDS011;9975;48.046;7.804;2022-11-28T09:32:12;13.03;;;8.50;;
19653;SDS011;9975;48.046;7.804;2022-11-28T09:34:38;13.97;;;8.87;;
19653;SDS011;9975;48.046;7.804;2022-11-28T09:37:04;20.93;;;11.03;;
19653;SDS011;9975;48.046;7.804;2022-11-28T09:39:29;26.93;;;14.17;;
19653;SDS011;9975;48.046;7.804;2022-11-28T09:44:41;19.83;;;10.43;;
19653;SDS011;9975;48.046;7.804;2022-11-28T09:47:17;31.40;;;15.50;;
19653;SDS011;9975;48.046;7.804;2022-11-28T09:49:55;25.03;;;15.07;;
19653;SDS011;9975;48.046;7.804;2022-11-28T09:52:42;17.70;;;11.07;;
19653;SDS011;9975;48.046;7.804;2022-11-28T09:57:56;10.20;;;5.97;;
19653;SDS011;9975;48.046;7.804;2022-11-28T10:08:37;4.30;;;2.17;;
19653;SDS011;9975;48.046;7.804;2022-11-28T10:11:18;1.70;;;1.33;;
19653;SDS011;9975;48.046;7.804;2022-11-28T10:19:44;2.00;;;1.07;;
19653;SDS011;9975;48.046;7.804;2022-11-28T10:22:15;1.90;;;1.70;;
19653;SDS011;9975;48.046;7.804;2022-11-28T10:24:46;2.50;;;1.23;;
19653;SDS011;9975;48.046;7.804;2022-11-28T10:27:22;6.90;;;4.27;;
19653;SDS011;9975;48.046;7.804;2022-11-28T10:32:46;2.23;;;1.47;;
19653;SDS011;9975;48.046;7.804;2022-11-28T10:35:38;2.80;;;2.43;;
19653;SDS011;9975;48.046;7.804;2022-11-28T10:38:11;3.80;;;1.63;;
19653;SDS011;9975;48.046;7.804;2022-11-28T10:56:19;2.17;;;1.27;;
19653;SDS011;9975;48.046;7.804;2022-11-28T11:01:14;6.93;;;4.10;;
19653;SDS011;9975;48.046;7.804;2022-11-28T11:03:40;4.57;;;2.90;;
19653;SDS011;9975;48.046;7.804;2022-11-28T11:06:06;4.60;;;3.60;;
19653;SDS011;9975;48.046;7.804;2022-11-28T11:08:34;4.77;;;3.77;;
19653;SDS011;9975;48.046;7.804;2022-11-28T11:11:05;6.47;;;3.53;;
19653;SDS011;9975;48.046;7.804;2022-11-28T11:16:45;6.43;;;4.67;;
19653;SDS011;9975;48.046;7.804;2022-11-28T11:22:03;3.93;;;2.77;;
19653;SDS011;9975;48.046;7.804;2022-11-28T11:25:02;6.83;;;2.80;;
19653;SDS011;9975;48.046;7.804;2022-11-28T11:27:29;8.67;;;3.67;;
19653;SDS011;9975;48.046;7.804;2022-11-28T11:29:54;4.43;;;2.90;;
19653;SDS011;9975;48.046;7.804;2022-11-28T11:32:24;2.67;;;2.47;;
19653;SDS011;9975;48.046;7.804;2022-11-28T11:34:53;5.50;;;2.73;;
19653;SDS011;9975;48.046;7.804;2022-11-28T11:37:30;3.20;;;2.77;;
19653;SDS011;9975;48.046;7.804;2022-11-28T11:40:02;2.80;;;2.43;;
19653;SDS011;9975;48.046;7.804;2022-11-28T11:42:42;5.90;;;3.30;;
19653;SDS011;9975;48.046;7.804;2022-11-28T11:45:34;4.43;;;3.40;;
19653;SDS011;9975;48.046;7.804;2022-11-28T11:48:00;5.90;;;4.93;;
19653;SDS011;9975;48.046;7.804;2022-11-28T11:50:28;7.10;;;4.80;;
19653;SDS011;9975;48.046;7.804;2022-11-28T11:53:03;10.00;;;7.40;;
19653;SDS011;9975;48.046;7.804;2022-11-28T11:55:46;5.57;;;3.97;;
19653;SDS011;9975;48.046;7.804;2022-11-28T11:58:17;2.27;;;2.07;;
19653;SDS011;9975;48.046;7.804;2022-11-28T12:00:59;4.80;;;2.70;;
19653;SDS011;9975;48.046;7.804;2022-11-28T12:03:35;5.20;;;1.90;;
19653;SDS011;9975;48.046;7.804;2022-11-28T12:06:48;6.10;;;2.87;;
19653;SDS011;9975;48.046;7.804;2022-11-28T12:09:25;3.77;;;2.43;;
19653;SDS011;9975;48.046;7.804;2022-11-28T12:11:58;4.43;;;2.83;;
19653;SDS011;9975;48.046;7.804;2022-11-28T12:14:34;5.00;;;2.70;;
19653;SDS011;9975;48.046;7.804;2022-11-28T12:19:48;11.60;;;6.40;;
19653;SDS011;9975;48.046;7.804;2022-11-28T12:22:34;8.40;;;5.50;;
19653;SDS011;9975;48.046;7.804;2022-11-28T12:28:12;7.27;;;5.60;;
19653;SDS011;9975;48.046;7.804;2022-11-28T12:31:12;6.70;;;4.80;;
19653;SDS011;9975;48.046;7.804;2022-11-28T12:34:27;15.70;;;8.93;;
19653;SDS011;9975;48.046;7.804;2022-11-28T12:36:35;5.77;;;3.50;;
19653;SDS011;9975;48.046;7.804;2022-11-28T12:39:34;7.93;;;4.97;;
19653;SDS011;9975;48.046;7.804;2022-11-28T12:42:33;18.00;;;12.70;;
19653;SDS011;9975;48.046;7.804;2022-11-28T12:45:23;22.37;;;11.97;;
19653;SDS011;9975;48.046;7.804;2022-11-28T12:53:53;9.27;;;4.63;;
19653;SDS011;9975;48.046;7.804;2022-11-28T12:56:48;5.30;;;3.47;;
19653;SDS011;9975;48.046;7.804;2022-11-28T13:02:32;10.50;;;7.73;;
19653;SDS011;9975;48.046;7.804;2022-11-28T13:13:06;3.40;;;1.90;;
19653;SDS011;9975;48.046;7.804;2022-11-28T13:21:01;5.30;;;2.87;;
19653;SDS011;9975;48.046;7.804;2022-11-28T13:29:11;5.00;;;2.00;;
19653;SDS011;9975;48.046;7.804;2022-11-28T13:32:07;5.50;;;1.90;;
19653;SDS011;9975;48.046;7.804;2022-11-28T13:34:52;5.00;;;2.10;;
19653;SDS011;9975;48.046;7.804;2022-11-28T13:37:26;1.77;;;1.67;;
19653;SDS011;9975;48.046;7.804;2022-11-28T13:40:11;1.50;;;1.40;;
19653;SDS011;9975;48.046;7.804;2022-11-28T13:42:49;8.17;;;1.77;;
19653;SDS011;9975;48.046;7.804;2022-11-28T13:45:41;3.17;;;1.47;;
19653;SDS011;9975;48.046;7.804;2022-11-28T13:51:45;1.60;;;1.50;;
19653;SDS011;9975;48.046;7.804;2022-11-28T13:56:44;2.00;;;1.77;;
19653;SDS011;9975;48.046;7.804;2022-11-28T13:59:15;3.50;;;1.53;;
19653;SDS011;9975;48.046;7.804;2022-11-28T14:01:46;4.03;;;3.70;;
19653;SDS011;9975;48.046;7.804;2022-11-28T14:04:20;12.80;;;7.53;;
19653;SDS011;9975;48.046;7.804;2022-11-28T14:06:47;2.63;;;2.40;;
19653;SDS011;9975;48.046;7.804;2022-11-28T14:10:03;3.20;;;2.27;;
19653;SDS011;9975;48.046;7.804;2022-11-28T14:15:06;2.30;;;1.77;;
19653;SDS011;9975;48.046;7.804;2022-11-28T14:20:48;3.80;;;1.87;;
19653;SDS011;9975;48.046;7.804;2022-11-28T14:26:25;2.37;;;2.17;;
19653;SDS011;9975;48.046;7.804;2022-11-28T14:28:56;4.33;;;3.23;;
19653;SDS011;9975;48.046;7.804;2022-11-28T14:31:28;4.10;;;3.20;;
19653;SDS011;9975;48.046;7.804;2022-11-28T14:36:33;5.53;;;4.07;;
19653;SDS011;9975;48.046;7.804;2022-11-28T14:39:04;8.07;;;6.17;;
19653;SDS011;9975;48.046;7.804;2022-11-28T14:49:45;11.90;;;5.40;;
19653;SDS011;9975;48.046;7.804;2022-11-28T14:54:43;10.03;;;5.83;;
19653;SDS011;9975;48.046;7.804;2022-11-28T14:57:16;9.40;;;5.57;;
19653;SDS011;9975;48.046;7.804;2022-11-28T14:59:56;19.70;;;11.93;;
19653;SDS011;9975;48.046;7.804;2022-11-28T15:05:44;10.67;;;7.23;;
19653;SDS011;9975;48.046;7.804;2022-11-28T15:08:19;17.70;;;10.37;;
19653;SDS011;9975;48.046;7.804;2022-11-28T15:14:07;13.13;;;7.17;;
19653;SDS011;9975;48.046;7.804;2022-11-28T15:16:40;14.30;;;7.87;;
19653;SDS011;9975;48.046;7.804;2022-11-28T15:22:02;6.83;;;6.07;;
19653;SDS011;9975;48.046;7.804;2022-11-28T15:24:30;16.50;;;7.73;;
19653;SDS011;9975;48.046;7.804;2022-11-28T15:29:32;9.67;;;7.20;;
19653;SDS011;9975;48.046;7.804;2022-11-28T15:31:59;12.73;;;8.07;;
19653;SDS011;9975;48.046;7.804;2022-11-28T15:34:29;12.30;;;7.97;;
19653;SDS011;9975;48.046;7.804;2022-11-28T15:36:57;11.57;;;7.33;;
19653;SDS011;9975;48.046;7.804;2022-11-28T15:39:30;12.30;;;8.53;;
19653;SDS011;9975;48.046;7.804;2022-11-28T15:42:01;10.20;;;6.10;;
19653;SDS011;9975;48.046;7.804;2022-11-28T15:44:30;12.03;;;5.90;;
19653;SDS011;9975;48.046;7.804;2022-11-28T15:46:56;11.40;;;6.13;;
19653;SDS011;9975;48.046;7.804;2022-11-28T15:49:26;10.23;;;5.80;;
19653;SDS011;9975;48.046;7.804;2022-11-28T15:52:04;6.03;;;4.97;;
19653;SDS011;9975;48.046;7.804;2022-11-28T15:54:34;9.53;;;4.60;;
19653;SDS011;9975;48.046;7.804;2022-11-28T15:57:02;10.50;;;3.70;;
19653;SDS011;9975;48.046;7.804;2022-11-28T15:59:28;7.13;;;4.77;;
19653;SDS011;9975;48.046;7.804;2022-11-28T16:01:56;4.00;;;2.70;;
19653;SDS011;9975;48.046;7.804;2022-11-28T16:04:25;2.63;;;2.40;;
19653;SDS011;9975;48.046;7.804;2022-11-28T16:06:53;2.37;;;1.80;;
19653;SDS011;9975;48.046;7.804;2022-11-28T16:09:27;3.77;;;2.37;;
19653;SDS011;9975;48.046;7.804;2022-11-28T16:11:56;4.80;;;2.00;;
19653;SDS011;9975;48.046;7.804;2022-11-28T16:16:52;2.47;;;2.27;;
19653;SDS011;9975;48.046;7.804;2022-11-28T16:19:23;4.50;;;3.33;;
19653;SDS011;9975;48.046;7.804;2022-11-28T16:21:54;2.50;;;2.30;;
19653;SDS011;9975;48.046;7.804;2022-11-28T16:24:29;4.40;;;2.53;;
19653;SDS011;9975;48.046;7.804;2022-11-28T16:29:57;5.73;;;3.50;;
19653;SDS011;9975;48.046;7.804;2022-11-28T16:35:00;7.00;;;4.37;;
19653;SDS011;9975;48.046;7.804;2022-11-28T16:37:29;4.60;;;3.40;;
19653;SDS011;9975;48.046;7.804;2022-11-28T16:42:25;4.73;;;3.80;;
19653;SDS011;9975;48.046;7.804;2022-11-28T16:44:51;7.40;;;4.10;;
19653;SDS011;9975;48.046;7.804;2022-11-28T16:47:28;6.27;;;3.17;;
19653;SDS011;9975;48.046;7.804;2022-11-28T16:50:37;8.87;;;5.07;;
19653;SDS011;9975;48.046;7.804;2022-11-28T16:52:49;9.73;;;7.00;;
19653;SDS011;9975;48.046;7.804;2022-11-28T16:58:01;7.50;;;5.10;;
19653;SDS011;9975;48.046;7.804;2022-11-28T17:03:43;7.67;;;4.27;;
19653;SDS011;9975;48.046;7.804;2022-11-28T17:06:15;8.53;;;3.10;;
19653;SDS011;9975;48.046;7.804;2022-11-28T17:08:43;3.97;;;2.40;;
19653;SDS011;9975;48.046;7.804;2022-11-28T17:11:09;4.30;;;2.73;;
19653;SDS011;9975;48.046;7.804;2022-11-28T17:13:35;3.03;;;1.50;;
19653;SDS011;9975;48.046;7.804;2022-11-28T17:16:04;4.10;;;2.00;;
19653;SDS011;9975;48.046;7.804;2022-11-28T17:18:34;3.07;;;2.27;;
19653;SDS011;9975;48.046;7.804;2022-11-28T17:21:00;3.57;;;2.63;;
19653;SDS011;9975;48.046;7.804;2022-11-28T17:23:25;2.73;;;2.10;;
19653;SDS011;9975;48.046;7.804;2022-11-28T17:25:51;3.23;;;2.13;;
19653;SDS011;9975;48.046;7.804;2022-11-28T17:28:17;3.20;;;2.90;;
19653;SDS011;9975;48.046;7.804;2022-11-28T17:30:42;3.33;;;2.37;;
19653;SDS011;9975;48.046;7.804;2022-11-28T17:33:17;6.70;;;3.47;;
19653;SDS011;9975;48.046;7.804;2022-11-28T17:35:43;2.30;;;1.50;;
19653;SDS011;9975;48.046;7.804;2022-11-28T17:38:10;2.33;;;1.93;;
19653;SDS011;9975;48.046;7.804;2022-11-28T17:40:36;1.60;;;1.50;;
19653;SDS011;9975;48.046;7.804;2022-11-28T17:43:12;1.70;;;1.60;;
19653;SDS011;9975;48.046;7.804;2022-11-28T17:45:43;2.40;;;1.80;;
19653;SDS011;9975;48.046;7.804;2022-11-28T17:48:09;3.17;;;2.87;;
19653;SDS011;9975;48.046;7.804;2022-11-28T17:50:38;2.67;;;2.47;;
19653;SDS011;9975;48.046;7.804;2022-11-28T17:53:05;3.33;;;2.93;;
19653;SDS011;9975;48.046;7.804;2022-11-28T17:55:31;3.97;;;3.67;;
19653;SDS011;9975;48.046;7.804;2022-11-28T17:57:57;3.03;;;2.80;;
19653;SDS011;9975;48.046;7.804;2022-11-28T18:00:23;5.50;;;3.97;;
19653;SDS011;9975;48.046;7.804;2022-11-28T18:02:51;3.67;;;2.50;;
19653;SDS011;9975;48.046;7.804;2022-11-28T18:05:16;7.43;;;3.50;;
19653;SDS011;9975;48.046;7.804;2022-11-28T18:07:42;11.00;;;5.07;;
19653;SDS011;9975;48.046;7.804;2022-11-28T18:10:08;10.63;;;5.40;;
19653;SDS011;9975;48.046;7.804;2022-11-28T18:12:34;7.67;;;3.33;;
19653;SDS011;9975;48.046;7.804;2022-11-28T18:15:01;2.63;;;1.73;;
19653;SDS011;9975;48.046;7.804;2022-11-28T18:17:26;8.53;;;4.60;;
19653;SDS011;9975;48.046;7.804;2022-11-28T18:19:52;5.80;;;2.70;;
19653;SDS011;9975;48.046;7.804;2022-11-28T18:22:18;3.03;;;1.47;;
19653;SDS011;9975;48.046;7.804;2022-11-28T18:24:43;4.57;;;3.40;;
19653;SDS011;9975;48.046;7.804;2022-11-28T18:27:09;1.20;;;1.13;;
19653;SDS011;9975;48.046;7.804;2022-11-28T18:29:35;3.30;;;2.00;;
19653;SDS011;9975;48.046;7.804;2022-11-28T18:32:01;0.97;;;0.90;;
19653;SDS011;9975;48.046;7.804;2022-11-28T18:37:12;1.90;;;1.73;;
19653;SDS011;9975;48.046;7.804;2022-11-28T18:39:37;2.43;;;2.23;;
19653;SDS011;9975;48.046;7.804;2022-11-28T18:42:03;3.27;;;1.30;;
19653;SDS011;9975;48.046;7.804;2022-11-28T18:44:29;2.40;;;1.80;;
19653;SDS011;9975;48.046;7.804;2022-11-28T18:46:54;5.47;;;2.73;;
19653;SDS011;9975;48.046;7.804;2022-11-28T18:49:20;1.23;;;1.13;;
19653;SDS011;9975;48.046;7.804;2022-11-28T18:51:46;16.50;;;8.90;;
19653;SDS011;9975;48.046;7.804;2022-11-28T18:54:12;2.70;;;1.40;;
19653;SDS011;9975;48.046;7.804;2022-11-28T18:56:49;1.80;;;1.70;;
19653;SDS011;9975;48.046;7.804;2022-11-28T18:59:15;3.30;;;1.47;;
19653;SDS011;9975;48.046;7.804;2022-11-28T19:01:40;1.70;;;1.60;;
19653;SDS011;9975;48.046;7.804;2022-11-28T19:04:07;2.00;;;1.63;;
19653;SDS011;9975;48.046;7.804;2022-11-28T19:06:35;1.20;;;1.10;;
19653;SDS011;9975;48.046;7.804;2022-11-28T19:09:03;1.70;;;1.60;;
19653;SDS011;9975;48.046;7.804;2022-11-28T19:11:30;2.30;;;2.10;;
19653;SDS011;9975;48.046;7.804;2022-11-28T19:13:56;4.53;;;2.30;;
19653;SDS011;9975;48.046;7.804;2022-11-28T19:16:27;2.10;;;1.80;;
19653;SDS011;9975;48.046;7.804;2022-11-28T19:18:54;16.47;;;7.17;;
19653;SDS011;9975;48.046;7.804;2022-11-28T19:21:21;3.37;;;2.40;;
19653;SDS011;9975;48.046;7.804;2022-11-28T19:23:49;3.33;;;2.23;;
19653;SDS011;9975;48.046;7.804;2022-11-28T19:26:17;13.40;;;6.80;;
19653;SDS011;9975;48.046;7.804;2022-11-28T19:28:44;3.63;;;2.80;;
19653;SDS011;9975;48.046;7.804;2022-11-28T19:31:12;1.43;;;1.30;;
19653;SDS011;9975;48.046;7.804;2022-11-28T19:33:42;2.00;;;1.40;;
19653;SDS011;9975;48.046;7.804;2022-11-28T19:36:09;2.10;;;1.07;;
19653;SDS011;9975;48.046;7.804;2022-11-28T19:38:36;2.23;;;2.00;;
19653;SDS011;9975;48.046;7.804;2022-11-28T19:41:06;2.60;;;1.93;;
19653;SDS011;9975;48.046;7.804;2022-11-28T19:43:37;1.70;;;1.57;;
19653;SDS011;9975;48.046;7.804;2022-11-28T19:46:02;1.77;;;1.37;;
19653;SDS011;9975;48.046;7.804;2022-11-28T19:48:29;1.33;;;1.13;;
19653;SDS011;9975;48.046;7.804;2022-11-28T19:50:56;2.17;;;1.70;;
19653;SDS011;9975;48.046;7.804;2022-11-28T19:53:22;3.53;;;1.57;;
19653;SDS011;9975;48.046;7.804;2022-11-28T19:55:48;1.37;;;1.10;;
19653;SDS011;9975;48.046;7.804;2022-11-28T19:58:15;1.23;;;1.13;;
19653;SDS011;9975;48.046;7.804;2022-11-28T20:00:41;1.10;;;1.00;;
19653;SDS011;9975;48.046;7.804;2022-11-28T20:03:07;1.67;;;1.30;;
19653;SDS011;9975;48.046;7.804;2022-11-28T20:05:33;1.50;;;1.30;;
19653;SDS011;9975;48.046;7.804;2022-11-28T20:08:00;2.07;;;1.20;;
19653;SDS011;9975;48.046;7.804;2022-11-28T20:10:26;2.47;;;1.33;;
19653;SDS011;9975;48.046;7.804;2022-11-28T20:12:52;1.87;;;1.10;;
19653;SDS011;9975;48.046;7.804;2022-11-28T20:15:21;1.07;;;0.97;;
19653;SDS011;9975;48.046;7.804;2022-11-28T20:17:47;1.10;;;1.00;;
19653;SDS011;9975;48.046;7.804;2022-11-28T20:20:13;1.10;;;0.90;;